Time;durP1;ratioP1;P1;durP2;ratioP2;P2;SDS_P1;SDS_P2;PMS_P1;PMS_P2;Temp;Humidity;BMP_temperature;BMP_pressure;BME280_temperature;BME280_humidity;BME280_pressure;Samples;Min_cycle;Max_cycle;Signal;HPM_P1;HPM_P2
2023/07/22 00:00:51;;;;;;;12.63;6.90;;;;;;;;;;5067660;28;20094;-67
2023/07/22 00:03:17;;;;;;;14.98;6.65;;;;;;;;;;5043754;28;20044;-67
2023/07/22 00:05:43;;;;;;;11.55;6.88;;;;;;;;;;5046830;28;20131;-67
2023/07/22 00:08:09;;;;;;;12.60;6.95;;;;;;;;;;5041854;28;20052;-67
2023/07/22 00:10:35;;;;;;;10.60;6.82;;;14.00;99.90;;;;;;5066228;28;20713;-67
2023/07/22 00:13:01;;;;;;;14.48;7.03;;;;;;;;;;5037715;28;20051;-66
2023/07/22 00:15:27;;;;;;;13.95;7.78;;;;;;;;;;5034301;28;20049;-67
2023/07/22 00:17:53;;;;;;;12.50;6.93;;;;;;;;;;5023778;28;20052;-66
2023/07/22 00:20:19;;;;;;;10.82;6.45;;;13.70;99.90;;;;;;5060274;28;20063;-67
2023/07/22 00:22:45;;;;;;;12.60;6.53;;;13.70;99.90;;;;;;5064722;28;20048;-66
2023/07/22 00:25:12;;;;;;;11.90;6.20;;;13.70;99.90;;;;;;5028006;28;20047;-66
2023/07/22 00:27:38;;;;;;;11.88;6.43;;;13.80;99.90;;;;;;5061178;28;20041;-66
2023/07/22 00:30:08;;;;;;;10.27;6.22;;;13.60;99.90;;;;;;5065378;28;20071;-66
2023/07/22 00:32:36;;;;;;;13.63;6.35;;;13.60;99.90;;;;;;5065664;28;20048;-66
2023/07/22 00:35:03;;;;;;;12.07;7.25;;;;;;;;;;5060648;28;20045;-66
2023/07/22 00:37:29;;;;;;;11.30;6.78;;;;;;;;;;5060125;28;20083;-66
2023/07/22 00:39:55;;;;;;;14.73;6.53;;;;;;;;;;5059612;28;20087;-67
2023/07/22 00:42:20;;;;;;;11.05;6.75;;;13.60;99.90;;;;;;5059216;28;20044;-66
2023/07/22 00:44:46;;;;;;;12.00;5.95;;;;;;;;;;5044903;28;20411;-66
2023/07/22 00:47:13;;;;;;;13.65;6.80;;;;;;;;;;5061541;28;20043;-66
2023/07/22 00:49:39;;;;;;;12.55;6.22;;;;;;;;;;5045201;28;20047;-67
2023/07/22 00:52:05;;;;;;;11.60;6.30;;;13.50;99.90;;;;;;5064425;28;20114;-67
2023/07/22 00:54:31;;;;;;;10.80;6.05;;;;;;;;;;5060121;28;20132;-66
2023/07/22 00:56:57;;;;;;;11.57;6.55;;;13.70;99.90;;;;;;5065083;28;20028;-67
2023/07/22 00:59:23;;;;;;;12.13;6.88;;;;;;;;;;5061579;28;20066;-67
2023/07/22 01:01:49;;;;;;;11.40;6.57;;;;;;;;;;5027906;28;20040;-66
2023/07/22 01:04:17;;;;;;;10.15;6.70;;;13.40;99.90;;;;;;5063272;28;20045;-66
2023/07/22 01:06:46;;;;;;;14.25;6.55;;;13.30;99.90;;;;;;5039990;28;20045;-67
2023/07/22 01:09:13;;;;;;;19.42;7.15;;;13.40;99.90;;;;;;5063537;28;20033;-67
2023/07/22 01:11:39;;;;;;;12.00;6.30;;;;;;;;;;5042505;28;20041;-67
2023/07/22 01:14:05;;;;;;;10.38;6.22;;;;;;;;;;5058681;28;20118;-67
2023/07/22 01:16:31;;;;;;;13.80;6.97;;;;;;;;;;5064530;28;20082;-66
2023/07/22 01:18:57;;;;;;;11.07;6.45;;;;;;;;;;5043711;28;20040;-67
2023/07/22 01:21:25;;;;;;;10.50;5.30;;;13.20;99.90;;;;;;5035534;28;20090;-66
2023/07/22 01:23:51;;;;;;;10.07;5.93;;;;;;;;;;5062199;28;20051;-66
2023/07/22 01:26:17;;;;;;;11.05;5.88;;;13.30;99.90;;;;;;5038840;28;20077;-67
2023/07/22 01:28:43;;;;;;;9.98;5.72;;;;;;;;;;5041120;28;20040;-67
2023/07/22 01:31:10;;;;;;;11.43;6.50;;;;;;;;;;5062939;28;20052;-67
2023/07/22 01:33:37;;;;;;;14.82;6.25;;;;;;;;;;5044122;28;20494;-67
2023/07/22 01:36:04;;;;;;;13.75;8.32;;;;;;;;;;5044806;28;20063;-67
2023/07/22 01:38:31;;;;;;;10.05;5.90;;;;;;;;;;5041338;28;20127;-67
2023/07/22 01:40:57;;;;;;;11.48;6.10;;;;;;;;;;5056820;28;20464;-67
2023/07/22 01:43:23;;;;;;;10.65;6.35;;;;;;;;;;5045535;28;20052;-67
2023/07/22 01:45:49;;;;;;;11.13;6.07;;;;;;;;;;5036944;28;20053;-67
2023/07/22 01:48:15;;;;;;;13.05;6.75;;;;;;;;;;5061882;28;20512;-66
2023/07/22 01:50:41;;;;;;;12.45;6.65;;;;;;;;;;5060352;28;20083;-67
2023/07/22 01:53:07;;;;;;;13.20;7.07;;;12.70;99.90;;;;;;5039931;28;20055;-66
2023/07/22 01:55:33;;;;;;;10.25;6.55;;;12.50;99.90;;;;;;5039430;28;20041;-67
2023/07/22 01:57:59;;;;;;;11.82;7.10;;;;;;;;;;5058718;28;20094;-66
2023/07/22 02:00:25;;;;;;;11.60;5.97;;;12.70;99.90;;;;;;5050161;28;20124;-66
2023/07/22 02:02:52;;;;;;;12.43;5.78;;;12.40;99.90;;;;;;5052823;28;20115;-66
2023/07/22 02:05:18;;;;;;;11.50;6.40;;;;;;;;;;5046341;28;20040;-67
2023/07/22 02:07:43;;;;;;;12.35;6.78;;;12.60;99.90;;;;;;5054359;28;20050;-66
2023/07/22 02:10:09;;;;;;;17.95;7.05;;;;;;;;;;5058112;28;20052;-68
2023/07/22 02:12:35;;;;;;;11.50;6.43;;;12.50;99.90;;;;;;5033827;28;20045;-66
2023/07/22 02:15:02;;;;;;;13.98;5.75;;;;;;;;;;5036664;28;20049;-67
2023/07/22 02:17:28;;;;;;;13.63;6.97;;;;;;;;;;5050902;28;20105;-67
2023/07/22 02:19:54;;;;;;;12.75;6.88;;;12.40;99.90;;;;;;5036193;28;20040;-67
2023/07/22 02:22:20;;;;;;;10.95;6.25;;;;;;;;;;5059221;28;20040;-66
2023/07/22 02:24:46;;;;;;;12.82;7.07;;;;;;;;;;5061103;28;20402;-67
2023/07/22 02:27:12;;;;;;;14.60;7.25;;;;;;;;;;5041991;28;20041;-67
2023/07/22 02:29:38;;;;;;;14.70;7.38;;;12.40;99.90;;;;;;5062553;28;20637;-67
2023/07/22 02:32:04;;;;;;;11.50;6.93;;;12.60;99.90;;;;;;5059794;28;20025;-66
2023/07/22 02:34:30;;;;;;;14.57;7.07;;;;;;;;;;5060561;28;20079;-66
2023/07/22 02:36:56;;;;;;;11.20;6.35;;;;;;;;;;5034535;28;20052;-66
2023/07/22 02:39:22;;;;;;;12.23;6.70;;;;;;;;;;5038488;28;20498;-65
2023/07/22 02:41:48;;;;;;;12.52;6.55;;;12.40;99.90;;;;;;5035526;28;20048;-65
2023/07/22 02:44:14;;;;;;;9.55;6.60;;;12.70;99.90;;;;;;5042857;28;20124;-67
2023/07/22 02:46:41;;;;;;;14.88;6.68;;;;;;;;;;5058738;28;20124;-66
2023/07/22 02:49:07;;;;;;;12.02;7.07;;;;;;;;;;5055341;28;20499;-66
2023/07/22 02:51:33;;;;;;;11.90;7.10;;;;;;;;;;5042601;28;20175;-67
2023/07/22 02:53:59;;;;;;;11.75;6.32;;;;;;;;;;5051638;28;20083;-67
2023/07/22 02:56:24;;;;;;;14.57;6.68;;;12.70;99.90;;;;;;5051288;28;20064;-67
2023/07/22 02:58:51;;;;;;;11.13;6.57;;;;;;;;;;5057005;28;20607;-67
2023/07/22 03:01:16;;;;;;;11.13;6.18;;;12.80;99.90;;;;;;5041881;28;20065;-66
2023/07/22 03:03:42;;;;;;;12.65;7.10;;;;;;;;;;5058636;28;20044;-66
2023/07/22 03:06:09;;;;;;;14.05;6.70;;;;;;;;;;5033385;28;20469;-66
2023/07/22 03:08:35;;;;;;;14.30;6.90;;;12.90;99.90;;;;;;5037423;28;20487;-66
2023/07/22 03:11:01;;;;;;;11.88;5.90;;;;;;;;;;5057055;28;20041;-66
2023/07/22 03:13:29;;;;;;;12.82;6.57;;;12.70;99.90;;;;;;5060662;28;20052;-66
2023/07/22 03:15:55;;;;;;;11.32;6.45;;;12.80;99.90;;;;;;5048399;28;20048;-67
2023/07/22 03:18:21;;;;;;;9.18;5.82;;;;;;;;;;5040618;28;20107;-66
2023/07/22 03:20:47;;;;;;;11.63;6.57;;;;;;;;;;5057311;28;20078;-66
2023/07/22 03:23:13;;;;;;;10.93;5.65;;;;;;;;;;5060652;28;20132;-66
2023/07/22 03:25:39;;;;;;;9.85;5.53;;;13.10;99.90;;;;;;5064500;28;20566;-67
2023/07/22 03:28:06;;;;;;;10.20;6.18;;;13.10;99.90;;;;;;5055473;28;20033;-66
2023/07/22 03:30:33;;;;;;;14.65;6.47;;;;;;;;;;5037134;28;20070;-67
2023/07/22 03:33:00;;;;;;;10.57;6.00;;;;;;;;;;5033341;28;20079;-67
2023/07/22 03:35:26;;;;;;;11.15;5.63;;;;;;;;;;5051695;28;20451;-66
2023/07/22 03:37:52;;;;;;;12.10;6.25;;;;;;;;;;5034434;28;20057;-66
2023/07/22 03:40:22;;;;;;;8.80;5.53;;;;;;;;;;5058638;28;20044;-66
2023/07/22 03:42:49;;;;;;;11.75;5.80;;;12.80;99.90;;;;;;5053839;28;20216;-67
2023/07/22 03:45:15;;;;;;;9.07;5.80;;;12.70;99.90;;;;;;5060522;28;20049;-67
2023/07/22 03:47:41;;;;;;;9.18;5.60;;;;;;;;;;5062088;28;20045;-66
2023/07/22 03:50:07;;;;;;;9.95;5.68;;;12.90;99.90;;;;;;5064660;28;20178;-65
2023/07/22 03:52:33;;;;;;;8.57;4.85;;;;;;;;;;5043920;28;20052;-66
2023/07/22 03:54:59;;;;;;;10.27;5.20;;;;;;;;;;5062536;28;20044;-66
2023/07/22 03:57:26;;;;;;;9.55;5.63;;;12.90;99.90;;;;;;5059891;28;20045;-66
2023/07/22 03:59:53;;;;;;;9.70;5.63;;;;;;;;;;5038005;28;20075;-67
2023/07/22 04:02:18;;;;;;;11.88;6.38;;;;;;;;;;5054142;28;20383;-66
2023/07/22 04:04:44;;;;;;;10.45;5.47;;;;;;;;;;5057893;28;20081;-67
2023/07/22 04:07:10;;;;;;;10.57;5.68;;;13.00;99.90;;;;;;5038069;28;20403;-69
2023/07/22 04:09:36;;;;;;;11.15;5.80;;;13.00;99.90;;;;;;5043404;28;20048;-67
2023/07/22 04:12:02;;;;;;;9.40;5.68;;;;;;;;;;5059158;28;20133;-67
2023/07/22 04:14:28;;;;;;;8.63;5.95;;;;;;;;;;5062307;28;20046;-67
2023/07/22 04:16:54;;;;;;;9.13;5.75;;;;;;;;;;5047029;28;20044;-66
2023/07/22 04:19:20;;;;;;;8.55;5.15;;;;;;;;;;5044789;28;20047;-67
2023/07/22 04:21:45;;;;;;;12.80;6.43;;;13.10;99.90;;;;;;5045661;28;20054;-66
2023/07/22 04:24:11;;;;;;;14.43;7.68;;;13.00;99.90;;;;;;5059594;28;20056;-67
2023/07/22 04:26:37;;;;;;;12.35;6.95;;;;;;;;;;5055184;28;20037;-67
2023/07/22 04:29:03;;;;;;;12.07;7.28;;;13.10;99.90;;;;;;5052544;28;20110;-67
2023/07/22 04:31:29;;;;;;;16.48;7.63;;;;;;;;;;5052036;28;20043;-67
2023/07/22 04:33:55;;;;;;;14.60;7.60;;;;;;;;;;5054055;28;20216;-67
2023/07/22 04:36:21;;;;;;;16.08;8.82;;;13.20;99.90;;;;;;5062073;28;20095;-67
2023/07/22 04:38:47;;;;;;;14.75;7.60;;;13.20;99.90;;;;;;5045753;28;20091;-66
2023/07/22 04:41:13;;;;;;;16.42;8.18;;;;;;;;;;5046475;28;20049;-67
2023/07/22 04:43:40;;;;;;;16.50;7.80;;;;;;;;;;5038525;28;20051;-67
2023/07/22 04:46:06;;;;;;;17.95;8.95;;;;;;;;;;5059623;28;20067;-67
2023/07/22 04:48:32;;;;;;;14.50;8.63;;;;;;;;;;5054563;28;20049;-67
2023/07/22 04:50:58;;;;;;;18.35;9.20;;;;;;;;;;5039655;28;20087;-66
2023/07/22 04:53:24;;;;;;;22.00;9.93;;;;;;;;;;5051718;28;20562;-67
2023/07/22 04:55:50;;;;;;;16.02;9.73;;;13.30;99.90;;;;;;5053137;28;20041;-67
2023/07/22 04:58:15;;;;;;;19.90;10.18;;;;;;;;;;5036293;28;20041;-67
2023/07/22 05:00:42;;;;;;;17.10;9.52;;;;;;;;;;5054561;28;20045;-67
2023/07/22 05:03:08;;;;;;;19.75;10.60;;;;;;;;;;5055223;28;20119;-67
2023/07/22 05:05:36;;;;;;;19.92;9.85;;;;;;;;;;5043945;28;20048;-66
2023/07/22 05:08:02;;;;;;;20.67;10.90;;;;;;;;;;5044375;28;20502;-67
2023/07/22 05:10:28;;;;;;;17.70;9.82;;;;;;;;;;5044043;28;20450;-66
2023/07/22 05:12:54;;;;;;;20.88;10.93;;;;;;;;;;5059781;28;20048;-67
2023/07/22 05:15:21;;;;;;;18.58;10.38;;;;;;;;;;5022341;28;20044;-66
2023/07/22 05:17:47;;;;;;;20.17;10.75;;;;;;;;;;5056927;28;20048;-67
2023/07/22 05:20:12;;;;;;;21.92;11.57;;;;;;;;;;5038056;28;20045;-66
2023/07/22 05:22:39;;;;;;;20.98;10.82;;;13.30;99.90;;;;;;5027297;28;20052;-67
2023/07/22 05:25:06;;;;;;;25.63;11.63;;;13.60;99.90;;;;;;5060705;28;20041;-67
2023/07/22 05:27:32;;;;;;;19.42;11.18;;;;;;;;;;5045554;28;20043;-67
2023/07/22 05:29:58;;;;;;;22.48;11.00;;;;;;;;;;5060945;28;20675;-67
2023/07/22 05:32:24;;;;;;;22.67;11.80;;;;;;;;;;5056297;28;20032;-67
2023/07/22 05:34:50;;;;;;;20.55;11.25;;;;;;;;;;5059660;28;20557;-66
2023/07/22 05:37:16;;;;;;;22.75;11.30;;;;;;;;;;5056407;28;20057;-67
2023/07/22 05:39:42;;;;;;;21.27;10.20;;;;;;;;;;5037093;28;20049;-66
2023/07/22 05:42:07;;;;;;;19.10;10.25;;;13.70;99.90;;;;;;5062183;28;20685;-66
2023/07/22 05:44:33;;;;;;;22.60;11.68;;;13.80;99.90;;;;;;5055878;28;20532;-66
2023/07/22 05:46:59;;;;;;;22.65;11.95;;;;;;;;;;5056617;28;20426;-67
2023/07/22 05:49:25;;;;;;;18.42;10.98;;;;;;;;;;5051981;28;20124;-66
2023/07/22 05:51:51;;;;;;;21.70;11.32;;;14.00;99.90;;;;;;5033171;28;20063;-67
2023/07/22 05:54:17;;;;;;;20.90;10.70;;;13.10;99.90;;;;;;5060324;28;20091;-67
2023/07/22 05:56:43;;;;;;;24.02;11.55;;;;;;;;;;5036542;28;20053;-67
2023/07/22 05:59:09;;;;;;;24.70;12.98;;;;;;;;;;5063589;28;20041;-67
2023/07/22 06:01:35;;;;;;;22.83;11.18;;;;;;;;;;5043699;28;20055;-67
2023/07/22 06:04:01;;;;;;;21.23;11.80;;;;;;;;;;5060378;28;20090;-67
2023/07/22 06:06:27;;;;;;;25.95;12.23;;;14.10;99.90;;;;;;5054481;28;20462;-67
2023/07/22 06:08:53;;;;;;;23.90;12.40;;;;;;;;;;5051515;28;20128;-67
2023/07/22 06:11:19;;;;;;;23.63;11.88;;;;;;;;;;5057136;28;20116;-67
2023/07/22 06:13:45;;;;;;;22.83;12.73;;;;;;;;;;5038471;28;20053;-67
2023/07/22 06:16:11;;;;;;;24.38;12.23;;;;;;;;;;5060243;28;20407;-67
2023/07/22 06:18:37;;;;;;;24.50;11.75;;;;;;;;;;5047611;28;20119;-67
2023/07/22 06:21:02;;;;;;;27.40;13.00;;;14.70;99.90;;;;;;5058729;28;20842;-67
2023/07/22 06:23:28;;;;;;;23.92;11.73;;;14.80;99.90;;;;;;5042653;28;20040;-67
2023/07/22 06:25:54;;;;;;;19.50;10.90;;;;;;;;;;5063100;28;20044;-67
2023/07/22 06:28:20;;;;;;;21.35;11.88;;;;;;;;;;5057284;28;20483;-67
2023/07/22 06:30:46;;;;;;;19.27;10.48;;;;;;;;;;5038008;28;20052;-67
2023/07/22 06:33:12;;;;;;;21.05;12.02;;;;;;;;;;5036034;28;20655;-67
2023/07/22 06:35:38;;;;;;;21.05;11.43;;;15.30;99.90;;;;;;5050213;28;20065;-67
2023/07/22 06:38:04;;;;;;;22.63;11.68;;;;;;;;;;5060760;28;20047;-67
2023/07/22 06:40:29;;;;;;;22.23;11.25;;;15.00;99.90;;;;;;5060793;28;20439;-67
2023/07/22 06:42:55;;;;;;;17.30;10.23;;;;;;;;;;5061370;28;20051;-67
2023/07/22 06:45:21;;;;;;;22.00;11.77;;;;;;;;;;5058280;28;20037;-67
2023/07/22 06:47:47;;;;;;;22.67;11.82;;;14.90;99.90;;;;;;5061593;28;20052;-67
2023/07/22 06:50:13;;;;;;;20.45;11.43;;;;;;;;;;5035609;28;20064;-67
2023/07/22 06:52:39;;;;;;;18.80;11.32;;;;;;;;;;5044443;28;20051;-67
2023/07/22 06:55:05;;;;;;;21.30;11.15;;;;;;;;;;5041499;28;20127;-67
2023/07/22 06:57:31;;;;;;;18.52;9.63;;;;;;;;;;5041279;28;21235;-66
2023/07/22 06:59:57;;;;;;;19.30;11.02;;;;;;;;;;5036362;28;20144;-66
2023/07/22 07:02:23;;;;;;;18.90;10.13;;;14.90;99.90;;;;;;5031632;28;20077;-67
2023/07/22 07:04:49;;;;;;;15.77;9.48;;;;;;;;;;5025632;28;20128;-71
2023/07/22 07:07:16;;;;;;;14.55;9.43;;;;;;;;;;5019588;28;20111;-73
2023/07/22 07:09:42;;;;;;;18.30;10.27;;;;;;;;;;5026630;28;20041;-68
2023/07/22 07:12:08;;;;;;;18.70;9.45;;;15.20;99.90;;;;;;5043729;28;20037;-66
2023/07/22 07:14:34;;;;;;;15.90;9.88;;;;;;;;;;5038212;28;20099;-66
2023/07/22 07:17:00;;;;;;;18.27;10.48;;;;;;;;;;5045709;28;20063;-65
2023/07/22 07:19:26;;;;;;;15.70;9.05;;;;;;;;;;5047438;28;20576;-64
2023/07/22 07:21:52;;;;;;;16.55;9.65;;;;;;;;;;5025116;28;20041;-66
2023/07/22 07:24:18;;;;;;;17.33;9.55;;;15.60;99.90;;;;;;5024840;28;20041;-65
2023/07/22 07:26:44;;;;;;;16.40;9.85;;;;;;;;;;5053601;28;20769;-65
2023/07/22 07:29:10;;;;;;;19.63;10.23;;;;;;;;;;5049763;28;20558;-67
2023/07/22 07:31:37;;;;;;;21.75;12.32;;;16.00;99.90;;;;;;5034825;28;20051;-67
2023/07/22 07:34:03;;;;;;;17.95;10.95;;;;;;;;;;5055981;28;20394;-67
2023/07/22 07:36:29;;;;;;;19.58;11.63;;;;;;;;;;5053666;28;20068;-65
2023/07/22 07:38:55;;;;;;;21.25;11.40;;;;;;;;;;5054808;28;20045;-66
2023/07/22 07:41:21;;;;;;;21.05;10.68;;;16.00;99.90;;;;;;5054082;28;20067;-65
2023/07/22 07:49:19;;;;;;;19.75;11.10;;;;;;;;;;5086609;28;20152;-66
2023/07/22 07:51:45;;;;;;;20.38;11.77;;;;;;;;;;5066773;28;20044;-65
2023/07/22 07:54:11;;;;;;;20.40;11.45;;;;;;;;;;5082268;28;20067;-65
2023/07/22 07:56:37;;;;;;;23.42;11.43;;;;;;;;;;5081179;28;20044;-65
2023/07/22 07:59:05;;;;;;;20.27;11.85;;;;;;;;;;5086095;28;20090;-66
2023/07/22 08:01:31;;;;;;;23.50;13.57;;;;;;;;;;5084137;28;20048;-65
2023/07/22 08:03:57;;;;;;;20.17;12.35;;;;;;;;;;5082071;28;20093;-66
2023/07/22 08:06:23;;;;;;;25.15;12.07;;;;;;;;;;5077235;28;20055;-66
2023/07/22 08:08:49;;;;;;;19.77;11.43;;;;;;;;;;5083202;28;20032;-66
2023/07/22 08:11:15;;;;;;;21.80;12.23;;;;;;;;;;5084440;28;20493;-65
2023/07/22 08:13:42;;;;;;;26.73;12.55;;;16.50;99.90;;;;;;5079189;28;20040;-66
2023/07/22 08:16:09;;;;;;;24.60;12.70;;;16.50;99.90;;;;;;5085421;28;20036;-66
2023/07/22 08:18:36;;;;;;;21.40;12.98;;;16.40;99.90;;;;;;5080669;28;20517;-67
2023/07/22 08:21:04;;;;;;;22.00;11.98;;;16.40;99.90;;;;;;5087736;28;20039;-65
2023/07/22 08:23:30;;;;;;;27.92;13.95;;;16.30;99.90;;;;;;5081447;28;20425;-66
2023/07/22 08:25:55;;;;;;;19.90;12.48;;;16.40;99.90;;;;;;5080289;28;20041;-66
2023/07/22 08:32:03;;;;;;;25.52;13.20;;;;;;;;;;5076700;28;20171;-66
2023/07/22 08:34:29;;;;;;;24.25;13.05;;;;;;;;;;5080328;28;20035;-66
2023/07/22 08:36:55;;;;;;;27.33;14.07;;;;;;;;;;5083888;28;20040;-66
2023/07/22 08:39:20;;;;;;;28.08;14.07;;;;;;;;;;5078285;28;20554;-66
2023/07/22 08:42:27;;;;;;;28.73;14.18;;;15.90;99.90;;;;;;5083845;28;20040;-65
2023/07/22 08:47:22;;;;;;;26.08;14.95;;;;;;;;;;5103486;28;20157;-66
2023/07/22 08:49:51;;;;;;;22.95;13.38;;;15.60;99.90;;;;;;5080079;28;20043;-64
2023/07/22 08:52:19;;;;;;;22.42;12.13;;;15.70;99.90;;;;;;5103382;28;20035;-69
2023/07/22 08:57:49;;;;;;;22.05;13.43;;;13.80;99.90;;;;;;5092592;28;20051;-65
2023/07/22 09:00:16;;;;;;;19.48;11.30;;;15.90;99.90;;;;;;5091285;28;20042;-67
2023/07/22 09:02:42;;;;;;;21.05;12.52;;;;;;;;;;5088566;28;20101;-67
2023/07/22 09:05:09;;;;;;;19.35;10.63;;;;;;;;;;5088894;28;20123;-66
2023/07/22 09:07:35;;;;;;;19.85;11.93;;;;;;;;;;5069224;28;20040;-66
2023/07/22 09:10:02;;;;;;;14.38;7.68;;;15.90;99.90;;;;;;5073681;28;20549;-67
2023/07/22 09:12:28;;;;;;;11.68;6.40;;;;;;;;;;5091809;28;20036;-67
2023/07/22 09:14:54;;;;;;;8.80;5.55;;;;;;;;;;5095030;28;20031;-67
2023/07/22 09:17:20;;;;;;;9.43;5.55;;;16.00;99.90;;;;;;5090561;28;20040;-65
2023/07/22 09:19:58;;;;;;;8.63;4.85;;;16.20;99.90;;;;;;5089286;28;20043;-67
2023/07/22 09:22:26;;;;;;;5.45;3.60;;;16.10;99.90;;;;;;5076305;28;20498;-66
2023/07/22 09:24:52;;;;;;;6.70;3.88;;;16.10;99.90;;;;;;5092354;28;20039;-66
2023/07/22 09:27:33;;;;;;;6.88;3.72;;;16.20;99.90;;;;;;5072773;28;20044;-68
2023/07/22 09:29:59;;;;;;;5.82;3.83;;;;;;;;;;5069955;28;20111;-68
2023/07/22 09:32:37;;;;;;;3.83;2.88;;;16.00;99.90;;;;;;5075143;28;20181;-65
2023/07/22 09:35:07;;;;;;;4.55;3.28;;;;;;;;;;5074337;28;20036;-65
2023/07/22 09:37:37;;;;;;;5.18;3.60;;;15.90;99.90;;;;;;5070495;28;20044;-66
2023/07/22 09:40:17;;;;;;;5.03;2.90;;;16.10;99.90;;;;;;5072767;28;20040;-65
2023/07/22 09:42:45;;;;;;;6.72;3.30;;;15.90;99.90;;;;;;5069101;28;20040;-66
2023/07/22 09:45:11;;;;;;;5.10;3.25;;;;;;;;;;5087622;28;20040;-66
2023/07/22 09:47:41;;;;;;;7.03;3.90;;;15.90;99.90;;;;;;5068987;28;20056;-66
2023/07/22 09:50:07;;;;;;;6.93;4.50;;;;;;;;;;5087813;28;20092;-67
2023/07/22 09:52:32;;;;;;;6.03;3.95;;;16.20;99.90;;;;;;5073557;28;20039;-65
2023/07/22 09:55:01;;;;;;;7.50;4.40;;;15.80;99.90;;;;;;5090106;28;20051;-65
2023/07/22 09:57:27;;;;;;;7.47;5.00;;;;;;;;;;5092565;28;20451;-65
2023/07/22 09:59:53;;;;;;;7.72;4.60;;;;;;;;;;5090308;28;20050;-66
2023/07/22 10:02:21;;;;;;;8.10;5.15;;;15.80;99.90;;;;;;5087809;28;20071;-67
2023/07/22 10:04:51;;;;;;;7.38;4.47;;;15.70;99.90;;;;;;5086937;28;20036;-66
2023/07/22 10:07:19;;;;;;;9.85;5.35;;;15.70;99.90;;;;;;5069689;28;20055;-66
2023/07/22 10:09:46;;;;;;;10.25;6.25;;;15.60;99.90;;;;;;5086159;28;20040;-68
2023/07/22 10:12:14;;;;;;;9.07;5.80;;;;;;;;;;5068057;28;20085;-69
2023/07/22 10:17:09;;;;;;;8.32;5.63;;;;;;;;;;5040914;28;20037;-69
2023/07/22 10:19:35;;;;;;;9.40;6.03;;;15.90;99.90;;;;;;5045351;28;20569;-69
2023/07/22 10:22:02;;;;;;;12.20;6.13;;;15.90;99.90;;;;;;5046870;28;20041;-72
2023/07/22 10:24:28;;;;;;;13.18;7.85;;;15.50;99.90;;;;;;5044061;28;20479;-72
2023/07/22 10:27:13;;;;;;;12.23;7.15;;;;;;;;;;5062118;28;20052;-69
2023/07/22 10:29:39;;;;;;;11.90;7.18;;;15.60;99.90;;;;;;5043260;28;20048;-69
2023/07/22 10:32:05;;;;;;;11.45;7.30;;;;;;;;;;5065956;28;20041;-68
2023/07/22 10:34:31;;;;;;;16.65;8.98;;;;;;;;;;5043617;28;20041;-66
2023/07/22 10:37:00;;;;;;;16.05;8.55;;;;;;;;;;5044473;28;20048;-67
2023/07/22 10:39:27;;;;;;;15.48;9.30;;;15.40;99.90;;;;;;5051733;28;20035;-66
2023/07/22 10:42:05;;;;;;;13.82;9.35;;;15.50;99.90;;;;;;5064541;28;20060;-67
2023/07/22 10:44:32;;;;;;;14.68;10.23;;;15.60;99.90;;;;;;5062310;28;20063;-67
2023/07/22 10:47:07;;;;;;;18.02;11.38;;;15.70;99.90;;;;;;5063406;28;20044;-67
2023/07/22 10:49:42;;;;;;;;;;;15.70;99.90;;;;;;5058506;28;20503;-67
2023/07/22 10:52:11;;;;;;;20.15;11.77;;;15.40;99.90;;;;;;5063218;28;19920;-67
2023/07/22 10:57:16;;;;;;;17.40;11.35;;;15.50;99.90;;;;;;5253593;22;20052;-65
2023/07/22 11:03:12;;;;;;;19.13;11.65;;;15.50;99.90;;;;;;5059484;28;20106;-67
2023/07/22 11:05:50;;;;;;;15.85;11.32;;;15.60;99.90;;;;;;5210195;22;20142;-65
2023/07/22 11:08:16;;;;;;;17.13;11.57;;;;;;;;;;5045431;28;20329;-67
2023/07/22 11:10:56;;;;;;;18.88;12.35;;;15.50;99.90;;;;;;5046056;28;20045;-67
2023/07/22 11:13:30;;;;;;;21.05;11.50;;;15.50;99.90;;;;;;5039656;28;20046;-67
2023/07/22 11:15:59;;;;;;;21.02;13.63;;;15.60;99.90;;;;;;5048205;28;20500;-67
2023/07/22 11:18:43;;;;;;;19.70;13.35;;;15.80;99.90;;;;;;5050419;28;20064;-65
2023/07/22 11:21:21;;;;;;;18.63;12.48;;;15.70;99.90;;;;;;5046527;28;20053;-66
2023/07/22 11:23:47;;;;;;;20.05;12.18;;;;;;;;;;5032087;28;20093;-66
2023/07/22 11:26:13;;;;;;;17.05;10.90;;;15.60;99.90;;;;;;5055337;28;20602;-65
2023/07/22 11:28:41;;;;;;;13.98;11.38;;;;;;;;;;5047483;28;20046;-65
2023/07/22 11:31:07;;;;;;;14.13;10.13;;;;;;;;;;5044904;28;20041;-66
2023/07/22 11:33:44;;;;;;;12.45;9.38;;;15.30;99.90;;;;;;5043176;28;20056;-66
2023/07/22 11:36:09;;;;;;;13.30;8.68;;;15.50;99.90;;;;;;5041174;28;20560;-65
2023/07/22 11:38:35;;;;;;;14.25;9.93;;;15.50;99.90;;;;;;5042040;28;20045;-66
2023/07/22 11:41:01;;;;;;;13.05;9.32;;;15.30;99.90;;;;;;5042993;28;20112;-68
2023/07/22 11:43:27;;;;;;;12.93;9.30;;;15.30;99.90;;;;;;5046080;28;20119;-66
2023/07/22 11:45:53;;;;;;;14.60;8.18;;;;;;;;;;5032824;28;20441;-68
2023/07/22 11:48:19;;;;;;;10.93;7.97;;;;;;;;;;5053526;28;20033;-66
2023/07/22 11:50:45;;;;;;;11.25;8.10;;;;;;;;;;5036814;28;20045;-66
2023/07/22 11:56:52;;;;;;;14.43;9.23;;;;;;;;;;5043284;28;20078;-67
2023/07/22 11:59:33;;;;;;;13.93;9.95;;;15.10;99.90;;;;;;5035876;28;20122;-66
2023/07/22 12:02:01;;;;;;;14.80;10.27;;;15.50;99.90;;;;;;5030707;28;20175;-69
2023/07/22 12:04:27;;;;;;;16.23;10.35;;;;;;;;;;5047589;28;20058;-65
2023/07/22 12:06:53;;;;;;;13.98;10.00;;;;;;;;;;5041647;28;20485;-67
2023/07/22 12:09:19;;;;;;;15.90;10.77;;;;;;;;;;5009236;28;20083;-69
2023/07/22 12:11:45;;;;;;;14.57;11.27;;;;;;;;;;5029014;28;20041;-67
2023/07/22 12:14:12;;;;;;;15.50;10.88;;;15.30;99.90;;;;;;5042901;28;20045;-65
2023/07/22 12:16:40;;;;;;;18.30;13.25;;;15.30;99.90;;;;;;5029623;28;20085;-65
2023/07/22 12:19:07;;;;;;;17.92;13.20;;;15.40;99.90;;;;;;5045245;28;20041;-70
2023/07/22 12:21:33;;;;;;;18.17;13.15;;;;;;;;;;5048598;28;20132;-67
2023/07/22 12:23:59;;;;;;;17.13;12.32;;;15.40;99.90;;;;;;5032625;28;20753;-66
2023/07/22 12:26:26;;;;;;;19.63;12.07;;;;;;;;;;5041853;28;20040;-66
2023/07/22 12:28:52;;;;;;;19.77;12.98;;;;;;;;;;5039186;28;20059;-67
2023/07/22 12:31:18;;;;;;;19.60;13.80;;;;;;;;;;5039268;28;20044;-66
2023/07/22 12:33:44;;;;;;;20.25;13.98;;;;;;;;;;5038022;28;20042;-66
2023/07/22 12:36:10;;;;;;;15.23;10.80;;;;;;;;;;5039958;28;20129;-69
2023/07/22 12:38:36;;;;;;;18.10;12.60;;;;;;;;;;5035193;28;20498;-66
2023/07/22 12:41:02;;;;;;;20.60;11.43;;;15.60;99.90;;;;;;5042856;28;20120;-68
2023/07/22 12:43:28;;;;;;;15.05;10.95;;;;;;;;;;5039737;28;20045;-68
2023/07/22 12:45:54;;;;;;;18.42;11.93;;;;;;;;;;5046910;28;20051;-65
2023/07/22 12:48:20;;;;;;;17.40;12.30;;;;;;;;;;5047562;28;20056;-65
2023/07/22 12:50:47;;;;;;;20.02;12.80;;;;;;;;;;5043742;28;20135;-65
2023/07/22 12:53:13;;;;;;;15.88;13.10;;;;;;;;;;5026729;28;20402;-67
2023/07/22 12:55:39;;;;;;;19.35;13.95;;;;;;;;;;5025208;28;20505;-66
2023/07/22 12:58:05;;;;;;;19.33;13.77;;;;;;;;;;5044438;28;20045;-68
2023/07/22 13:00:31;;;;;;;17.02;12.75;;;;;;;;;;5039521;28;20037;-65
2023/07/22 13:02:57;;;;;;;18.73;13.02;;;;;;;;;;5027850;28;20076;-66
2023/07/22 13:05:24;;;;;;;19.67;12.93;;;15.60;99.90;;;;;;5035860;28;20113;-65
2023/07/22 13:07:50;;;;;;;16.25;12.45;;;15.70;99.90;;;;;;5014048;28;20056;-67
2023/07/22 13:10:19;;;;;;;14.77;10.88;;;;;;;;;;5044081;28;20572;-69
2023/07/22 13:12:46;;;;;;;19.00;10.95;;;;;;;;;;5046711;28;20682;-68
2023/07/22 13:15:14;;;;;;;17.42;11.55;;;15.80;99.90;;;;;;5042303;28;20036;-67
2023/07/22 13:17:40;;;;;;;16.88;10.80;;;;;;;;;;5048810;28;20048;-69
2023/07/22 13:20:09;;;;;;;16.33;10.98;;;15.80;99.90;;;;;;5045793;28;20041;-68
2023/07/22 13:22:38;;;;;;;15.00;11.18;;;16.10;99.90;;;;;;5024549;28;20084;-69
2023/07/22 13:25:04;;;;;;;18.70;11.77;;;;;;;;;;5026173;28;20040;-68
2023/07/22 13:27:30;;;;;;;15.02;11.43;;;;;;;;;;5049167;28;20041;-69
2023/07/22 13:29:57;;;;;;;19.67;11.35;;;;;;;;;;5025888;28;20052;-68
2023/07/22 13:32:23;;;;;;;17.67;10.02;;;;;;;;;;5033313;28;20099;-65
2023/07/22 13:34:49;;;;;;;12.90;8.52;;;;;;;;;;5048347;28;20040;-66
2023/07/22 13:37:15;;;;;;;13.50;10.07;;;;;;;;;;5030624;28;20075;-67
2023/07/22 13:39:41;;;;;;;12.52;9.50;;;;;;;;;;5044931;28;20052;-66
2023/07/22 13:42:07;;;;;;;12.07;8.75;;;16.70;99.90;;;;;;5044990;28;20090;-65
2023/07/22 13:44:33;;;;;;;13.43;9.05;;;;;;;;;;5038823;28;20048;-67
2023/07/22 13:46:59;;;;;;;11.77;8.07;;;;;;;;;;5046047;28;20048;-66
2023/07/22 13:50:12;;;;;;;9.20;7.15;;;17.00;99.90;;;;;;5040915;28;20149;-67
2023/07/22 13:52:38;;;;;;;12.65;7.68;;;17.00;99.90;;;;;;5009985;28;20065;-67
2023/07/22 13:55:04;;;;;;;11.13;7.47;;;17.20;99.90;;;;;;5039202;28;20041;-69
2023/07/22 13:57:30;;;;;;;11.63;7.70;;;;;;;;;;5036087;28;20132;-70
2023/07/22 13:59:56;;;;;;;7.35;6.28;;;;;;;;;;5007719;28;20041;-68
2023/07/22 14:02:22;;;;;;;10.05;7.07;;;;;;;;;;5009306;28;20475;-71
2023/07/22 14:04:47;;;;;;;10.00;6.60;;;;;;;;;;5042184;28;20049;-70